sensor_id;sensor_type;location;lat;lon;timestamp;P1;durP1;ratioP1;P2;durP2;ratioP2
5279;SDS011;2663;53.588;10.010;2022-09-27T00:00:56;3.20;;;2.80;;
5279;SDS011;2663;53.588;10.010;2022-09-27T00:03:27;4.00;;;2.37;;
5279;SDS011;2663;53.588;10.010;2022-09-27T00:08:36;2.80;;;2.60;;
5279;SDS011;2663;53.588;10.010;2022-09-27T00:11:04;4.60;;;2.97;;
5279;SDS011;2663;53.588;10.010;2022-09-27T00:13:38;4.10;;;2.90;;
5279;SDS011;2663;53.588;10.010;2022-09-27T00:16:05;6.20;;;3.43;;
5279;SDS011;2663;53.588;10.010;2022-09-27T00:18:32;6.47;;;4.03;;
5279;SDS011;2663;53.588;10.010;2022-09-27T00:21:03;6.60;;;2.77;;
5279;SDS011;2663;53.588;10.010;2022-09-27T00:23:34;12.20;;;5.80;;
5279;SDS011;2663;53.588;10.010;2022-09-27T00:26:01;3.00;;;2.70;;
5279;SDS011;2663;53.588;10.010;2022-09-27T00:28:28;3.53;;;2.67;;
5279;SDS011;2663;53.588;10.010;2022-09-27T00:30:56;2.80;;;2.57;;
5279;SDS011;2663;53.588;10.010;2022-09-27T00:33:23;6.60;;;3.10;;
5279;SDS011;2663;53.588;10.010;2022-09-27T00:35:50;2.90;;;2.00;;
5279;SDS011;2663;53.588;10.010;2022-09-27T00:38:17;6.17;;;2.63;;
5279;SDS011;2663;53.588;10.010;2022-09-27T00:40:44;5.57;;;2.43;;
5279;SDS011;2663;53.588;10.010;2022-09-27T00:43:18;4.03;;;2.47;;
5279;SDS011;2663;53.588;10.010;2022-09-27T00:45:48;3.93;;;2.40;;
5279;SDS011;2663;53.588;10.010;2022-09-27T00:48:21;4.03;;;2.37;;
5279;SDS011;2663;53.588;10.010;2022-09-27T00:50:53;2.10;;;1.90;;
5279;SDS011;2663;53.588;10.010;2022-09-27T00:53:26;3.10;;;2.80;;
5279;SDS011;2663;53.588;10.010;2022-09-27T00:56:01;3.23;;;2.93;;
5279;SDS011;2663;53.588;10.010;2022-09-27T00:58:32;3.40;;;2.97;;
5279;SDS011;2663;53.588;10.010;2022-09-27T01:01:06;2.77;;;2.57;;
5279;SDS011;2663;53.588;10.010;2022-09-27T01:03:38;3.90;;;2.50;;
5279;SDS011;2663;53.588;10.010;2022-09-27T01:06:10;2.60;;;2.40;;
5279;SDS011;2663;53.588;10.010;2022-09-27T01:08:39;2.83;;;2.40;;
5279;SDS011;2663;53.588;10.010;2022-09-27T01:16:22;2.50;;;2.30;;
5279;SDS011;2663;53.588;10.010;2022-09-27T01:24:33;8.10;;;2.40;;
5279;SDS011;2663;53.588;10.010;2022-09-27T01:27:10;3.90;;;2.40;;
5279;SDS011;2663;53.588;10.010;2022-09-27T01:32:32;2.40;;;2.10;;
5279;SDS011;2663;53.588;10.010;2022-09-27T01:35:05;3.57;;;2.27;;
5279;SDS011;2663;53.588;10.010;2022-09-27T01:41:15;3.33;;;2.17;;
5279;SDS011;2663;53.588;10.010;2022-09-27T01:44:03;3.73;;;2.50;;
5279;SDS011;2663;53.588;10.010;2022-09-27T01:46:41;4.67;;;2.87;;
5279;SDS011;2663;53.588;10.010;2022-09-27T01:49:15;3.10;;;2.47;;
5279;SDS011;2663;53.588;10.010;2022-09-27T01:51:44;3.53;;;2.60;;
5279;SDS011;2663;53.588;10.010;2022-09-27T01:54:16;3.63;;;2.10;;
5279;SDS011;2663;53.588;10.010;2022-09-27T01:56:47;2.43;;;2.23;;
5279;SDS011;2663;53.588;10.010;2022-09-27T01:59:25;2.20;;;2.10;;
5279;SDS011;2663;53.588;10.010;2022-09-27T02:02:07;2.40;;;2.20;;
5279;SDS011;2663;53.588;10.010;2022-09-27T02:04:35;2.43;;;2.03;;
5279;SDS011;2663;53.588;10.010;2022-09-27T02:07:07;2.90;;;2.00;;
5279;SDS011;2663;53.588;10.010;2022-09-27T02:10:02;4.40;;;3.00;;
5279;SDS011;2663;53.588;10.010;2022-09-27T02:12:31;5.10;;;3.27;;
5279;SDS011;2663;53.588;10.010;2022-09-27T02:15:06;2.90;;;2.43;;
5279;SDS011;2663;53.588;10.010;2022-09-27T02:25:41;3.43;;;2.67;;
5279;SDS011;2663;53.588;10.010;2022-09-27T02:30:47;2.73;;;2.53;;
5279;SDS011;2663;53.588;10.010;2022-09-27T02:33:14;2.60;;;2.43;;
5279;SDS011;2663;53.588;10.010;2022-09-27T02:35:41;4.80;;;4.03;;
5279;SDS011;2663;53.588;10.010;2022-09-27T02:38:07;4.27;;;2.97;;
5279;SDS011;2663;53.588;10.010;2022-09-27T02:40:35;2.27;;;2.17;;
5279;SDS011;2663;53.588;10.010;2022-09-27T02:43:07;2.23;;;2.03;;
5279;SDS011;2663;53.588;10.010;2022-09-27T02:45:40;28.57;;;13.60;;
5279;SDS011;2663;53.588;10.010;2022-09-27T02:51:26;3.57;;;3.23;;
5279;SDS011;2663;53.588;10.010;2022-09-27T02:54:15;3.50;;;2.50;;
5279;SDS011;2663;53.588;10.010;2022-09-27T02:59:36;2.73;;;2.17;;
5279;SDS011;2663;53.588;10.010;2022-09-27T03:02:31;6.00;;;1.87;;
5279;SDS011;2663;53.588;10.010;2022-09-27T03:05:06;2.10;;;2.00;;
5279;SDS011;2663;53.588;10.010;2022-09-27T03:07:35;2.70;;;2.50;;
5279;SDS011;2663;53.588;10.010;2022-09-27T03:10:04;2.27;;;2.07;;
5279;SDS011;2663;53.588;10.010;2022-09-27T03:12:31;2.43;;;2.23;;
5279;SDS011;2663;53.588;10.010;2022-09-27T03:14:59;2.77;;;2.57;;
5279;SDS011;2663;53.588;10.010;2022-09-27T03:17:26;2.37;;;2.20;;
5279;SDS011;2663;53.588;10.010;2022-09-27T03:19:52;2.33;;;2.20;;
5279;SDS011;2663;53.588;10.010;2022-09-27T03:22:19;5.47;;;2.60;;
5279;SDS011;2663;53.588;10.010;2022-09-27T03:24:46;3.60;;;2.13;;
5279;SDS011;2663;53.588;10.010;2022-09-27T03:27:12;2.90;;;2.63;;
5279;SDS011;2663;53.588;10.010;2022-09-27T03:29:39;6.63;;;4.00;;
5279;SDS011;2663;53.588;10.010;2022-09-27T03:32:06;3.70;;;3.40;;
5279;SDS011;2663;53.588;10.010;2022-09-27T03:34:32;2.60;;;2.50;;
5279;SDS011;2663;53.588;10.010;2022-09-27T03:36:59;2.83;;;2.63;;
5279;SDS011;2663;53.588;10.010;2022-09-27T03:39:27;2.77;;;2.57;;
5279;SDS011;2663;53.588;10.010;2022-09-27T03:41:53;14.33;;;2.77;;
5279;SDS011;2663;53.588;10.010;2022-09-27T03:44:20;2.63;;;2.43;;
5279;SDS011;2663;53.588;10.010;2022-09-27T03:46:47;4.87;;;2.60;;
5279;SDS011;2663;53.588;10.010;2022-09-27T03:49:13;9.93;;;2.37;;
5279;SDS011;2663;53.588;10.010;2022-09-27T03:51:40;4.17;;;2.60;;
5279;SDS011;2663;53.588;10.010;2022-09-27T03:54:07;3.20;;;2.90;;
5279;SDS011;2663;53.588;10.010;2022-09-27T03:56:35;3.70;;;2.87;;
5279;SDS011;2663;53.588;10.010;2022-09-27T03:59:02;2.93;;;2.73;;
5279;SDS011;2663;53.588;10.010;2022-09-27T04:01:29;4.00;;;3.00;;
5279;SDS011;2663;53.588;10.010;2022-09-27T04:03:56;3.47;;;3.17;;
5279;SDS011;2663;53.588;10.010;2022-09-27T04:06:22;3.20;;;2.40;;
5279;SDS011;2663;53.588;10.010;2022-09-27T04:08:49;3.67;;;3.30;;
5279;SDS011;2663;53.588;10.010;2022-09-27T04:11:16;4.10;;;2.63;;
5279;SDS011;2663;53.588;10.010;2022-09-27T04:13:42;5.40;;;3.53;;
5279;SDS011;2663;53.588;10.010;2022-09-27T04:16:09;3.73;;;3.43;;
5279;SDS011;2663;53.588;10.010;2022-09-27T04:18:36;9.83;;;3.40;;
5279;SDS011;2663;53.588;10.010;2022-09-27T04:21:03;4.00;;;3.60;;
5279;SDS011;2663;53.588;10.010;2022-09-27T04:23:30;3.13;;;2.83;;
5279;SDS011;2663;53.588;10.010;2022-09-27T04:25:56;4.87;;;3.27;;
5279;SDS011;2663;53.588;10.010;2022-09-27T04:28:23;3.20;;;2.90;;
5279;SDS011;2663;53.588;10.010;2022-09-27T04:30:50;3.17;;;2.97;;
5279;SDS011;2663;53.588;10.010;2022-09-27T04:33:16;2.90;;;2.70;;
5279;SDS011;2663;53.588;10.010;2022-09-27T04:35:43;6.90;;;3.20;;
5279;SDS011;2663;53.588;10.010;2022-09-27T04:38:28;3.10;;;2.87;;
5279;SDS011;2663;53.588;10.010;2022-09-27T04:40:55;9.33;;;2.90;;
5279;SDS011;2663;53.588;10.010;2022-09-27T04:43:22;2.93;;;2.70;;
5279;SDS011;2663;53.588;10.010;2022-09-27T04:45:48;3.70;;;3.17;;
5279;SDS011;2663;53.588;10.010;2022-09-27T04:48:15;2.70;;;2.50;;
5279;SDS011;2663;53.588;10.010;2022-09-27T04:50:42;3.57;;;3.27;;
5279;SDS011;2663;53.588;10.010;2022-09-27T04:53:12;3.27;;;3.07;;
5279;SDS011;2663;53.588;10.010;2022-09-27T04:55:43;7.73;;;3.00;;
5279;SDS011;2663;53.588;10.010;2022-09-27T04:58:11;7.63;;;4.00;;
5279;SDS011;2663;53.588;10.010;2022-09-27T05:00:38;3.43;;;3.13;;
5279;SDS011;2663;53.588;10.010;2022-09-27T05:03:06;2.90;;;2.70;;
5279;SDS011;2663;53.588;10.010;2022-09-27T05:05:32;3.40;;;3.10;;
5279;SDS011;2663;53.588;10.010;2022-09-27T05:07:59;3.30;;;2.70;;
5279;SDS011;2663;53.588;10.010;2022-09-27T05:10:26;5.63;;;3.17;;
5279;SDS011;2663;53.588;10.010;2022-09-27T05:12:52;3.50;;;3.20;;
5279;SDS011;2663;53.588;10.010;2022-09-27T05:15:19;3.90;;;3.47;;
5279;SDS011;2663;53.588;10.010;2022-09-27T05:17:46;3.30;;;3.10;;
5279;SDS011;2663;53.588;10.010;2022-09-27T05:20:12;7.87;;;4.90;;
5279;SDS011;2663;53.588;10.010;2022-09-27T05:22:39;7.63;;;5.30;;
5279;SDS011;2663;53.588;10.010;2022-09-27T05:25:06;8.10;;;6.20;;
5279;SDS011;2663;53.588;10.010;2022-09-27T05:27:33;8.30;;;5.77;;
5279;SDS011;2663;53.588;10.010;2022-09-27T05:29:59;9.43;;;5.53;;
5279;SDS011;2663;53.588;10.010;2022-09-27T05:32:27;8.30;;;6.30;;
5279;SDS011;2663;53.588;10.010;2022-09-27T05:34:54;8.80;;;6.63;;
5279;SDS011;2663;53.588;10.010;2022-09-27T05:37:21;6.40;;;5.57;;
5279;SDS011;2663;53.588;10.010;2022-09-27T05:39:47;9.63;;;5.80;;
5279;SDS011;2663;53.588;10.010;2022-09-27T05:42:15;8.80;;;6.50;;
5279;SDS011;2663;53.588;10.010;2022-09-27T05:44:41;8.30;;;6.17;;
5279;SDS011;2663;53.588;10.010;2022-09-27T05:47:12;10.93;;;7.50;;
5279;SDS011;2663;53.588;10.010;2022-09-27T05:49:39;9.03;;;6.90;;
5279;SDS011;2663;53.588;10.010;2022-09-27T05:52:06;8.57;;;6.53;;
5279;SDS011;2663;53.588;10.010;2022-09-27T05:54:38;17.93;;;7.03;;
5279;SDS011;2663;53.588;10.010;2022-09-27T05:57:04;9.37;;;7.30;;
5279;SDS011;2663;53.588;10.010;2022-09-27T05:59:33;10.60;;;7.50;;
5279;SDS011;2663;53.588;10.010;2022-09-27T06:02:00;12.37;;;9.17;;
5279;SDS011;2663;53.588;10.010;2022-09-27T06:04:27;11.50;;;8.90;;
5279;SDS011;2663;53.588;10.010;2022-09-27T06:06:53;13.53;;;8.73;;
5279;SDS011;2663;53.588;10.010;2022-09-27T06:09:20;15.73;;;10.40;;
5279;SDS011;2663;53.588;10.010;2022-09-27T06:11:47;16.33;;;9.93;;
5279;SDS011;2663;53.588;10.010;2022-09-27T06:14:13;16.60;;;10.10;;
5279;SDS011;2663;53.588;10.010;2022-09-27T06:16:40;23.10;;;10.00;;
5279;SDS011;2663;53.588;10.010;2022-09-27T06:19:07;13.43;;;9.80;;
5279;SDS011;2663;53.588;10.010;2022-09-27T06:21:34;11.47;;;8.03;;
5279;SDS011;2663;53.588;10.010;2022-09-27T06:24:02;17.40;;;9.37;;
5279;SDS011;2663;53.588;10.010;2022-09-27T06:26:29;12.13;;;8.60;;
5279;SDS011;2663;53.588;10.010;2022-09-27T06:28:55;17.40;;;9.40;;
5279;SDS011;2663;53.588;10.010;2022-09-27T06:31:22;19.10;;;7.90;;
5279;SDS011;2663;53.588;10.010;2022-09-27T06:33:49;10.90;;;8.00;;
5279;SDS011;2663;53.588;10.010;2022-09-27T06:36:15;11.30;;;7.67;;
5279;SDS011;2663;53.588;10.010;2022-09-27T06:38:42;12.17;;;7.27;;
5279;SDS011;2663;53.588;10.010;2022-09-27T06:41:11;13.60;;;9.80;;
5279;SDS011;2663;53.588;10.010;2022-09-27T06:43:39;10.70;;;6.40;;
5279;SDS011;2663;53.588;10.010;2022-09-27T06:46:06;11.63;;;6.83;;
5279;SDS011;2663;53.588;10.010;2022-09-27T06:48:33;9.27;;;6.00;;
5279;SDS011;2663;53.588;10.010;2022-09-27T06:51:02;10.10;;;6.63;;
5279;SDS011;2663;53.588;10.010;2022-09-27T06:53:29;7.50;;;6.37;;
5279;SDS011;2663;53.588;10.010;2022-09-27T06:55:57;7.00;;;5.73;;
5279;SDS011;2663;53.588;10.010;2022-09-27T06:58:26;9.93;;;4.07;;
5279;SDS011;2663;53.588;10.010;2022-09-27T07:01:11;7.33;;;4.90;;
5279;SDS011;2663;53.588;10.010;2022-09-27T07:03:39;5.30;;;3.63;;
5279;SDS011;2663;53.588;10.010;2022-09-27T07:06:18;3.97;;;3.57;;
5279;SDS011;2663;53.588;10.010;2022-09-27T07:08:51;6.13;;;3.20;;
5279;SDS011;2663;53.588;10.010;2022-09-27T07:11:19;2.67;;;2.33;;
5279;SDS011;2663;53.588;10.010;2022-09-27T07:13:48;7.20;;;2.90;;
5279;SDS011;2663;53.588;10.010;2022-09-27T07:16:15;4.50;;;2.63;;
5279;SDS011;2663;53.588;10.010;2022-09-27T07:18:42;3.20;;;2.10;;
5279;SDS011;2663;53.588;10.010;2022-09-27T07:21:09;2.43;;;2.33;;
5279;SDS011;2663;53.588;10.010;2022-09-27T07:23:37;2.93;;;2.60;;
5279;SDS011;2663;53.588;10.010;2022-09-27T07:26:04;2.07;;;1.20;;
5279;SDS011;2663;53.588;10.010;2022-09-27T07:28:33;10.63;;;2.00;;
5279;SDS011;2663;53.588;10.010;2022-09-27T07:31:00;0.90;;;0.90;;
5279;SDS011;2663;53.588;10.010;2022-09-27T07:33:29;2.20;;;0.97;;
5279;SDS011;2663;53.588;10.010;2022-09-27T07:35:56;5.77;;;1.20;;
5279;SDS011;2663;53.588;10.010;2022-09-27T07:38:22;2.30;;;0.93;;
5279;SDS011;2663;53.588;10.010;2022-09-27T07:40:49;1.90;;;1.00;;
5279;SDS011;2663;53.588;10.010;2022-09-27T07:43:16;4.87;;;2.23;;
5279;SDS011;2663;53.588;10.010;2022-09-27T07:45:44;1.23;;;1.13;;
5279;SDS011;2663;53.588;10.010;2022-09-27T07:48:12;3.43;;;0.93;;
5279;SDS011;2663;53.588;10.010;2022-09-27T07:50:40;0.80;;;0.80;;
5279;SDS011;2663;53.588;10.010;2022-09-27T07:53:06;3.00;;;1.30;;
5279;SDS011;2663;53.588;10.010;2022-09-27T07:55:37;4.83;;;1.57;;
5279;SDS011;2663;53.588;10.010;2022-09-27T07:58:05;4.00;;;1.20;;
5279;SDS011;2663;53.588;10.010;2022-09-27T08:00:34;6.03;;;1.47;;
5279;SDS011;2663;53.588;10.010;2022-09-27T08:03:06;3.27;;;1.70;;
5279;SDS011;2663;53.588;10.010;2022-09-27T08:05:34;4.47;;;1.93;;
5279;SDS011;2663;53.588;10.010;2022-09-27T08:08:04;1.37;;;1.07;;
5279;SDS011;2663;53.588;10.010;2022-09-27T08:10:31;2.73;;;1.60;;
5279;SDS011;2663;53.588;10.010;2022-09-27T08:12:59;2.47;;;1.33;;
5279;SDS011;2663;53.588;10.010;2022-09-27T08:15:31;4.90;;;1.90;;
5279;SDS011;2663;53.588;10.010;2022-09-27T08:18:00;2.53;;;1.20;;
5279;SDS011;2663;53.588;10.010;2022-09-27T08:20:27;1.60;;;1.50;;
5279;SDS011;2663;53.588;10.010;2022-09-27T08:22:54;5.13;;;2.23;;
5279;SDS011;2663;53.588;10.010;2022-09-27T08:25:20;2.20;;;1.03;;
5279;SDS011;2663;53.588;10.010;2022-09-27T08:27:59;4.93;;;1.30;;
5279;SDS011;2663;53.588;10.010;2022-09-27T08:30:29;4.33;;;1.40;;
5279;SDS011;2663;53.588;10.010;2022-09-27T08:32:58;1.67;;;1.43;;
5279;SDS011;2663;53.588;10.010;2022-09-27T08:35:26;1.57;;;1.23;;
5279;SDS011;2663;53.588;10.010;2022-09-27T08:37:57;2.37;;;1.10;;
5279;SDS011;2663;53.588;10.010;2022-09-27T08:40:30;0.97;;;0.97;;
5279;SDS011;2663;53.588;10.010;2022-09-27T08:43:19;1.90;;;1.23;;
5279;SDS011;2663;53.588;10.010;2022-09-27T08:49:37;0.97;;;0.97;;
5279;SDS011;2663;53.588;10.010;2022-09-27T08:52:17;1.43;;;1.10;;
5279;SDS011;2663;53.588;10.010;2022-09-27T08:54:47;8.03;;;1.63;;
5279;SDS011;2663;53.588;10.010;2022-09-27T08:57:15;2.13;;;1.27;;
5279;SDS011;2663;53.588;10.010;2022-09-27T08:59:44;5.47;;;1.43;;
5279;SDS011;2663;53.588;10.010;2022-09-27T09:02:19;5.83;;;1.93;;
5279;SDS011;2663;53.588;10.010;2022-09-27T09:04:50;4.30;;;1.50;;
5279;SDS011;2663;53.588;10.010;2022-09-27T09:13:27;2.20;;;1.30;;
5279;SDS011;2663;53.588;10.010;2022-09-27T09:16:21;1.70;;;1.60;;
5279;SDS011;2663;53.588;10.010;2022-09-27T09:21:41;3.00;;;1.23;;
5279;SDS011;2663;53.588;10.010;2022-09-27T09:24:26;4.97;;;2.30;;
5279;SDS011;2663;53.588;10.010;2022-09-27T09:27:19;2.93;;;1.50;;
5279;SDS011;2663;53.588;10.010;2022-09-27T09:32:56;2.87;;;1.50;;
5279;SDS011;2663;53.588;10.010;2022-09-27T09:35:47;2.17;;;1.90;;
5279;SDS011;2663;53.588;10.010;2022-09-27T09:38:35;3.13;;;1.53;;
5279;SDS011;2663;53.588;10.010;2022-09-27T09:43:49;1.80;;;1.40;;
5279;SDS011;2663;53.588;10.010;2022-09-27T09:46:37;1.63;;;1.40;;
5279;SDS011;2663;53.588;10.010;2022-09-27T09:49:17;1.80;;;1.47;;
5279;SDS011;2663;53.588;10.010;2022-09-27T09:51:52;1.90;;;1.10;;
5279;SDS011;2663;53.588;10.010;2022-09-27T09:54:44;1.13;;;0.93;;
5279;SDS011;2663;53.588;10.010;2022-09-27T09:57:33;4.03;;;1.40;;
5279;SDS011;2663;53.588;10.010;2022-09-27T10:00:16;1.43;;;1.07;;
5279;SDS011;2663;53.588;10.010;2022-09-27T10:02:44;1.70;;;0.90;;
5279;SDS011;2663;53.588;10.010;2022-09-27T10:05:16;0.87;;;0.87;;
5279;SDS011;2663;53.588;10.010;2022-09-27T10:07:46;3.13;;;1.10;;
5279;SDS011;2663;53.588;10.010;2022-09-27T10:10:16;0.90;;;0.90;;
5279;SDS011;2663;53.588;10.010;2022-09-27T10:12:45;3.53;;;1.23;;
5279;SDS011;2663;53.588;10.010;2022-09-27T10:15:13;0.90;;;0.90;;
5279;SDS011;2663;53.588;10.010;2022-09-27T10:17:44;2.73;;;1.23;;
5279;SDS011;2663;53.588;10.010;2022-09-27T10:23:13;4.40;;;0.90;;
5279;SDS011;2663;53.588;10.010;2022-09-27T10:25:45;4.23;;;1.00;;
5279;SDS011;2663;53.588;10.010;2022-09-27T10:28:33;1.57;;;1.20;;
5279;SDS011;2663;53.588;10.010;2022-09-27T10:31:22;0.77;;;0.77;;
5279;SDS011;2663;53.588;10.010;2022-09-27T10:33:50;2.40;;;0.87;;
5279;SDS011;2663;53.588;10.010;2022-09-27T10:36:26;1.00;;;0.80;;
5279;SDS011;2663;53.588;10.010;2022-09-27T10:38:58;4.47;;;1.07;;
5279;SDS011;2663;53.588;10.010;2022-09-27T10:41:36;5.23;;;0.97;;
5279;SDS011;2663;53.588;10.010;2022-09-27T10:46:52;1.43;;;0.80;;
5279;SDS011;2663;53.588;10.010;2022-09-27T10:49:24;1.20;;;1.13;;
5279;SDS011;2663;53.588;10.010;2022-09-27T10:51:55;1.10;;;1.10;;
5279;SDS011;2663;53.588;10.010;2022-09-27T10:54:28;1.10;;;1.00;;
5279;SDS011;2663;53.588;10.010;2022-09-27T10:59:39;2.60;;;1.23;;
5279;SDS011;2663;53.588;10.010;2022-09-27T11:02:18;3.40;;;1.20;;
5279;SDS011;2663;53.588;10.010;2022-09-27T11:08:42;1.80;;;1.00;;
5279;SDS011;2663;53.588;10.010;2022-09-27T11:10:43;1.80;;;1.03;;
5279;SDS011;2663;53.588;10.010;2022-09-27T11:13:24;1.00;;;1.00;;
5279;SDS011;2663;53.588;10.010;2022-09-27T11:23:56;2.77;;;0.97;;
5279;SDS011;2663;53.588;10.010;2022-09-27T11:26:44;1.83;;;1.27;;
5279;SDS011;2663;53.588;10.010;2022-09-27T11:31:57;1.00;;;1.00;;
5279;SDS011;2663;53.588;10.010;2022-09-27T11:37:35;4.77;;;1.13;;
5279;SDS011;2663;53.588;10.010;2022-09-27T11:45:54;2.97;;;2.40;;
5279;SDS011;2663;53.588;10.010;2022-09-27T11:51:53;2.53;;;1.20;;
5279;SDS011;2663;53.588;10.010;2022-09-27T11:54:49;1.10;;;0.90;;
5279;SDS011;2663;53.588;10.010;2022-09-27T11:57:41;10.23;;;0.83;;
5279;SDS011;2663;53.588;10.010;2022-09-27T12:00:34;1.23;;;0.90;;
5279;SDS011;2663;53.588;10.010;2022-09-27T12:08:47;1.20;;;1.20;;
5279;SDS011;2663;53.588;10.010;2022-09-27T12:11:18;1.00;;;1.00;;
5279;SDS011;2663;53.588;10.010;2022-09-27T12:13:52;3.17;;;1.00;;
5279;SDS011;2663;53.588;10.010;2022-09-27T12:16:20;0.87;;;0.87;;
5279;SDS011;2663;53.588;10.010;2022-09-27T12:18:48;0.70;;;0.70;;
5279;SDS011;2663;53.588;10.010;2022-09-27T12:21:18;1.83;;;0.87;;
5279;SDS011;2663;53.588;10.010;2022-09-27T12:23:47;0.70;;;0.70;;
5279;SDS011;2663;53.588;10.010;2022-09-27T12:28:57;1.23;;;1.13;;
5279;SDS011;2663;53.588;10.010;2022-09-27T12:31:32;1.30;;;1.07;;
5279;SDS011;2663;53.588;10.010;2022-09-27T12:34:10;2.40;;;0.97;;
5279;SDS011;2663;53.588;10.010;2022-09-27T12:37:00;1.63;;;0.80;;
5279;SDS011;2663;53.588;10.010;2022-09-27T12:39:40;1.60;;;0.83;;
5279;SDS011;2663;53.588;10.010;2022-09-27T12:42:28;0.90;;;0.70;;
5279;SDS011;2663;53.588;10.010;2022-09-27T12:45:01;0.90;;;0.90;;
5279;SDS011;2663;53.588;10.010;2022-09-27T12:47:31;5.40;;;1.40;;
5279;SDS011;2663;53.588;10.010;2022-09-27T12:52:42;0.97;;;0.90;;
5279;SDS011;2663;53.588;10.010;2022-09-27T12:55:18;1.27;;;1.00;;
5279;SDS011;2663;53.588;10.010;2022-09-27T12:58:06;0.73;;;0.73;;
5279;SDS011;2663;53.588;10.010;2022-09-27T13:03:36;0.97;;;0.70;;
5279;SDS011;2663;53.588;10.010;2022-09-27T13:06:32;0.60;;;0.60;;
5279;SDS011;2663;53.588;10.010;2022-09-27T13:15:30;1.43;;;0.80;;
5279;SDS011;2663;53.588;10.010;2022-09-27T13:22:53;0.80;;;0.80;;
5279;SDS011;2663;53.588;10.010;2022-09-27T13:28:56;2.10;;;0.60;;
5279;SDS011;2663;53.588;10.010;2022-09-27T13:32:00;2.60;;;1.00;;
5279;SDS011;2663;53.588;10.010;2022-09-27T13:42:47;2.40;;;0.80;;
5279;SDS011;2663;53.588;10.010;2022-09-27T13:45:33;0.97;;;0.70;;
5279;SDS011;2663;53.588;10.010;2022-09-27T13:48:28;0.60;;;0.60;;
5279;SDS011;2663;53.588;10.010;2022-09-27T13:53:34;0.60;;;0.60;;
5279;SDS011;2663;53.588;10.010;2022-09-27T13:56:04;9.20;;;0.70;;
5279;SDS011;2663;53.588;10.010;2022-09-27T14:01:29;2.43;;;0.80;;
5279;SDS011;2663;53.588;10.010;2022-09-27T14:04:04;7.30;;;0.67;;
5279;SDS011;2663;53.588;10.010;2022-09-27T14:06:43;5.30;;;0.73;;
5279;SDS011;2663;53.588;10.010;2022-09-27T14:09:36;0.50;;;0.50;;
5279;SDS011;2663;53.588;10.010;2022-09-27T14:12:11;2.20;;;0.70;;
5279;SDS011;2663;53.588;10.010;2022-09-27T14:14:44;1.97;;;0.73;;
5279;SDS011;2663;53.588;10.010;2022-09-27T14:17:12;5.13;;;0.73;;
5279;SDS011;2663;53.588;10.010;2022-09-27T14:19:40;0.97;;;0.67;;
5279;SDS011;2663;53.588;10.010;2022-09-27T14:22:12;0.70;;;0.70;;
5279;SDS011;2663;53.588;10.010;2022-09-27T14:27:24;1.70;;;0.67;;
5279;SDS011;2663;53.588;10.010;2022-09-27T14:29:56;1.27;;;0.70;;
5279;SDS011;2663;53.588;10.010;2022-09-27T14:32:28;0.70;;;0.70;;
5279;SDS011;2663;53.588;10.010;2022-09-27T14:35:09;0.60;;;0.50;;
5279;SDS011;2663;53.588;10.010;2022-09-27T14:38:01;0.67;;;0.67;;
5279;SDS011;2663;53.588;10.010;2022-09-27T14:41:00;6.33;;;0.90;;
5279;SDS011;2663;53.588;10.010;2022-09-27T14:43:28;1.73;;;0.80;;
5279;SDS011;2663;53.588;10.010;2022-09-27T14:46:01;1.73;;;0.70;;
5279;SDS011;2663;53.588;10.010;2022-09-27T14:48:33;5.70;;;0.97;;
5279;SDS011;2663;53.588;10.010;2022-09-27T14:53:41;5.27;;;1.10;;
5279;SDS011;2663;53.588;10.010;2022-09-27T14:56:10;0.90;;;0.90;;
5279;SDS011;2663;53.588;10.010;2022-09-27T14:58:43;1.67;;;1.20;;
5279;SDS011;2663;53.588;10.010;2022-09-27T15:01:14;2.97;;;1.20;;
5279;SDS011;2663;53.588;10.010;2022-09-27T15:03:42;6.70;;;1.13;;
5279;SDS011;2663;53.588;10.010;2022-09-27T15:06:11;7.53;;;1.23;;
5279;SDS011;2663;53.588;10.010;2022-09-27T15:08:38;2.00;;;0.70;;
5279;SDS011;2663;53.588;10.010;2022-09-27T15:11:05;1.97;;;0.93;;
5279;SDS011;2663;53.588;10.010;2022-09-27T15:13:33;1.80;;;1.07;;
5279;SDS011;2663;53.588;10.010;2022-09-27T15:16:07;0.80;;;0.80;;
5279;SDS011;2663;53.588;10.010;2022-09-27T15:21:10;2.20;;;1.00;;
5279;SDS011;2663;53.588;10.010;2022-09-27T15:23:51;4.20;;;1.10;;
5279;SDS011;2663;53.588;10.010;2022-09-27T15:26:41;0.80;;;0.70;;
5279;SDS011;2663;53.588;10.010;2022-09-27T15:29:19;1.03;;;0.83;;
5279;SDS011;2663;53.588;10.010;2022-09-27T15:31:57;1.00;;;0.90;;
5279;SDS011;2663;53.588;10.010;2022-09-27T15:34:27;7.53;;;1.20;;
5279;SDS011;2663;53.588;10.010;2022-09-27T15:36:56;1.20;;;1.10;;
5279;SDS011;2663;53.588;10.010;2022-09-27T15:39:34;1.20;;;0.90;;
5279;SDS011;2663;53.588;10.010;2022-09-27T15:42:09;2.00;;;1.10;;
5279;SDS011;2663;53.588;10.010;2022-09-27T15:49:57;3.40;;;2.00;;
5279;SDS011;2663;53.588;10.010;2022-09-27T15:52:40;1.00;;;1.00;;
5279;SDS011;2663;53.588;10.010;2022-09-27T15:55:16;3.50;;;1.37;;
5279;SDS011;2663;53.588;10.010;2022-09-27T15:57:45;2.30;;;0.80;;
5279;SDS011;2663;53.588;10.010;2022-09-27T16:00:16;1.20;;;0.73;;
5279;SDS011;2663;53.588;10.010;2022-09-27T16:02:45;0.97;;;0.97;;
5279;SDS011;2663;53.588;10.010;2022-09-27T16:05:12;3.20;;;1.10;;
5279;SDS011;2663;53.588;10.010;2022-09-27T16:07:39;2.73;;;0.90;;
5279;SDS011;2663;53.588;10.010;2022-09-27T16:10:12;5.70;;;1.10;;
5279;SDS011;2663;53.588;10.010;2022-09-27T16:12:41;2.53;;;1.00;;
5279;SDS011;2663;53.588;10.010;2022-09-27T16:15:10;3.03;;;1.10;;
5279;SDS011;2663;53.588;10.010;2022-09-27T16:17:38;1.53;;;1.40;;
5279;SDS011;2663;53.588;10.010;2022-09-27T16:20:14;2.10;;;0.97;;
5279;SDS011;2663;53.588;10.010;2022-09-27T16:22:44;8.80;;;2.50;;
5279;SDS011;2663;53.588;10.010;2022-09-27T16:25:11;3.40;;;1.00;;
5279;SDS011;2663;53.588;10.010;2022-09-27T16:27:38;1.53;;;0.90;;
5279;SDS011;2663;53.588;10.010;2022-09-27T16:30:04;1.00;;;0.83;;
5279;SDS011;2663;53.588;10.010;2022-09-27T16:32:32;2.10;;;0.80;;
5279;SDS011;2663;53.588;10.010;2022-09-27T16:34:59;3.53;;;0.90;;
5279;SDS011;2663;53.588;10.010;2022-09-27T16:37:26;2.70;;;0.90;;
5279;SDS011;2663;53.588;10.010;2022-09-27T16:39:55;4.43;;;1.77;;
5279;SDS011;2663;53.588;10.010;2022-09-27T16:42:22;4.27;;;0.97;;
5279;SDS011;2663;53.588;10.010;2022-09-27T16:44:48;3.63;;;1.00;;
5279;SDS011;2663;53.588;10.010;2022-09-27T16:47:15;2.47;;;1.13;;
5279;SDS011;2663;53.588;10.010;2022-09-27T16:49:42;2.30;;;1.00;;
5279;SDS011;2663;53.588;10.010;2022-09-27T16:52:28;2.00;;;1.17;;
5279;SDS011;2663;53.588;10.010;2022-09-27T16:54:57;3.10;;;1.07;;
5279;SDS011;2663;53.588;10.010;2022-09-27T16:57:24;2.63;;;0.80;;
5279;SDS011;2663;53.588;10.010;2022-09-27T16:59:53;6.27;;;1.13;;
5279;SDS011;2663;53.588;10.010;2022-09-27T17:02:23;2.60;;;1.00;;
5279;SDS011;2663;53.588;10.010;2022-09-27T17:04:50;4.70;;;1.67;;
5279;SDS011;2663;53.588;10.010;2022-09-27T17:07:18;2.73;;;0.97;;
5279;SDS011;2663;53.588;10.010;2022-09-27T17:09:45;5.47;;;1.80;;
5279;SDS011;2663;53.588;10.010;2022-09-27T17:12:12;4.40;;;2.70;;
5279;SDS011;2663;53.588;10.010;2022-09-27T17:14:40;4.23;;;1.50;;
5279;SDS011;2663;53.588;10.010;2022-09-27T17:17:07;4.43;;;1.63;;
5279;SDS011;2663;53.588;10.010;2022-09-27T17:19:34;3.37;;;1.43;;
5279;SDS011;2663;53.588;10.010;2022-09-27T17:22:03;2.87;;;1.43;;
5279;SDS011;2663;53.588;10.010;2022-09-27T17:24:31;2.50;;;0.80;;
5279;SDS011;2663;53.588;10.010;2022-09-27T17:26:58;1.93;;;0.93;;
5279;SDS011;2663;53.588;10.010;2022-09-27T17:29:25;6.20;;;1.53;;
5279;SDS011;2663;53.588;10.010;2022-09-27T17:31:51;2.77;;;0.73;;
5279;SDS011;2663;53.588;10.010;2022-09-27T17:34:18;3.33;;;0.80;;
5279;SDS011;2663;53.588;10.010;2022-09-27T17:36:45;2.87;;;1.00;;
5279;SDS011;2663;53.588;10.010;2022-09-27T17:39:17;1.20;;;1.10;;
5279;SDS011;2663;53.588;10.010;2022-09-27T17:41:49;2.10;;;0.97;;
5279;SDS011;2663;53.588;10.010;2022-09-27T17:44:16;4.30;;;1.00;;
5279;SDS011;2663;53.588;10.010;2022-09-27T17:46:44;0.90;;;0.70;;
5279;SDS011;2663;53.588;10.010;2022-09-27T17:49:11;2.70;;;0.90;;
5279;SDS011;2663;53.588;10.010;2022-09-27T17:51:57;1.43;;;1.10;;